createdAt,value
2019-03-31T00:01:50.285Z,8.63
2019-03-31T00:04:23.819Z,6.33
2019-03-31T00:06:53.838Z,6.97
2019-03-31T00:09:24.261Z,6.05
2019-03-31T00:11:57.249Z,7.72
2019-03-31T00:14:29.113Z,6.80
2019-03-31T00:16:59.330Z,5.78
2019-03-31T00:19:29.345Z,6.15
2019-03-31T00:22:02.033Z,8.08
2019-03-31T00:24:32.244Z,6.58
2019-03-31T00:27:04.004Z,5.53
2019-03-31T00:29:34.017Z,6.55
2019-03-31T00:32:04.341Z,5.70
2019-03-31T00:34:34.871Z,5.92
2019-03-31T00:37:07.518Z,6.35
2019-03-31T00:39:37.974Z,6.83
2019-03-31T00:42:08.400Z,6.83
2019-03-31T00:44:38.520Z,6.67
2019-03-31T00:47:13.246Z,6.60
2019-03-31T00:49:46.538Z,5.78
2019-03-31T00:52:16.657Z,5.70
2019-03-31T00:54:47.290Z,8.50
2019-03-31T00:57:19.045Z,7.15
2019-03-31T00:59:48.959Z,6.87
2019-03-31T01:02:20.600Z,8.23
2019-03-31T01:04:50.732Z,8.33
2019-03-31T01:07:24.332Z,9.63
2019-03-31T01:09:58.445Z,7.00
2019-03-31T01:12:28.771Z,6.87
2019-03-31T01:14:59.399Z,8.00
2019-03-31T01:17:31.464Z,10.15
2019-03-31T01:20:01.582Z,7.85
2019-03-31T01:22:31.599Z,8.88
2019-03-31T01:25:02.638Z,10.10
2019-03-31T01:27:36.957Z,8.48
2019-03-31T01:30:10.249Z,8.55
2019-03-31T01:32:40.675Z,10.08
2019-03-31T01:35:11.235Z,8.45
2019-03-31T01:37:42.859Z,9.55
2019-03-31T01:40:13.387Z,10.00
2019-03-31T01:42:45.144Z,9.10
2019-03-31T01:45:15.604Z,12.37
2019-03-31T01:47:45.586Z,10.10
2019-03-31T01:50:17.627Z,12.10
2019-03-31T01:52:49.404Z,13.40
2019-03-31T01:55:19.731Z,10.88
2019-03-31T01:57:51.424Z,12.93
2019-03-31T02:00:40.551Z,10.15
2019-03-31T02:03:11.591Z,10.48
2019-03-31T02:05:42.632Z,8.55
2019-03-31T02:08:13.262Z,9.33
2019-03-31T02:10:43.483Z,12.47
2019-03-31T02:13:13.806Z,11.45
2019-03-31T02:15:44.540Z,10.93
2019-03-31T02:18:22.136Z,7.97
2019-03-31T02:20:52.254Z,9.70
2019-03-31T02:23:22.576Z,9.78
2019-03-31T02:25:52.901Z,12.10
2019-03-31T02:28:24.657Z,10.25
2019-03-31T02:30:54.677Z,10.25
2019-03-31T02:33:26.125Z,11.35
2019-03-31T02:35:56.344Z,10.15
2019-03-31T02:38:26.259Z,11.88
2019-03-31T02:40:56.480Z,13.50
2019-03-31T02:43:26.598Z,9.93
2019-03-31T02:45:57.134Z,11.22
2019-03-31T02:48:27.247Z,14.15
2019-03-31T02:50:57.375Z,11.20
2019-03-31T02:53:27.381Z,12.47
2019-03-31T02:55:58.425Z,10.35
2019-03-31T02:58:30.195Z,13.28
2019-03-31T03:01:00.810Z,14.65
2019-03-31T03:03:33.896Z,11.48
2019-03-31T03:06:06.986Z,10.48
2019-03-31T03:08:40.893Z,15.78
2019-03-31T03:11:15.215Z,13.68
2019-03-31T03:13:47.786Z,11.50
2019-03-31T03:16:19.240Z,9.53
2019-03-31T03:18:49.573Z,15.65
2019-03-31T03:21:23.988Z,10.05
2019-03-31T03:23:53.897Z,10.95
2019-03-31T03:26:27.193Z,10.98
2019-03-31T03:28:57.306Z,9.08
2019-03-31T03:31:28.654Z,10.25
2019-03-31T03:33:58.773Z,14.63
2019-03-31T03:36:28.998Z,16.42
2019-03-31T03:38:59.217Z,12.18
2019-03-31T03:41:29.333Z,11.15
2019-03-31T03:44:02.351Z,12.25
2019-03-31T03:46:31.210Z,13.00
2019-03-31T03:49:01.383Z,12.70
2019-03-31T03:51:31.449Z,12.60
2019-03-31T03:54:01.568Z,11.75
2019-03-31T03:56:31.685Z,10.63
2019-03-31T03:59:01.905Z,11.53
2019-03-31T04:01:32.535Z,13.22
2019-03-31T04:04:03.167Z,13.40
2019-03-31T04:06:33.595Z,13.78
2019-03-31T04:09:06.085Z,12.90
2019-03-31T04:11:36.185Z,10.65
2019-03-31T04:14:06.414Z,10.85
2019-03-31T04:16:36.524Z,12.58
2019-03-31T04:19:08.691Z,12.13
2019-03-31T04:21:38.817Z,11.50
2019-03-31T04:24:09.135Z,13.58
2019-03-31T04:26:39.149Z,15.58
2019-03-31T04:29:11.447Z,12.75
2019-03-31T04:31:43.959Z,11.93
2019-03-31T04:34:17.289Z,16.20
2019-03-31T04:36:47.509Z,10.65
2019-03-31T04:39:19.163Z,11.93
2019-03-31T04:41:49.180Z,13.10
2019-03-31T04:44:19.812Z,13.68
2019-03-31T04:46:51.469Z,12.28
2019-03-31T04:49:21.283Z,11.85
2019-03-31T04:51:51.498Z,11.65
2019-03-31T04:54:21.616Z,10.60
2019-03-31T04:56:52.925Z,13.65
2019-03-31T04:59:23.186Z,13.30
2019-03-31T05:01:53.407Z,13.20
2019-03-31T05:04:23.423Z,13.13
2019-03-31T05:06:53.747Z,11.25
2019-03-31T05:09:25.304Z,12.50
2019-03-31T05:11:55.623Z,14.83
2019-03-31T05:14:25.788Z,13.48
2019-03-31T05:16:55.859Z,12.88
2019-03-31T05:19:26.490Z,15.68
2019-03-31T05:21:56.507Z,10.90
2019-03-31T05:24:26.728Z,14.10
2019-03-31T05:26:57.668Z,12.30
2019-03-31T05:29:29.423Z,15.00
2019-03-31T05:31:59.440Z,13.85
2019-03-31T05:34:29.763Z,11.50
2019-03-31T05:37:03.063Z,11.25
2019-03-31T05:39:34.302Z,10.38
2019-03-31T05:42:04.932Z,12.43
2019-03-31T05:44:34.951Z,14.05
2019-03-31T05:47:05.074Z,12.05
2019-03-31T05:49:35.902Z,9.90
2019-03-31T05:52:06.123Z,10.50
2019-03-31T05:54:36.652Z,11.60
2019-03-31T05:57:06.773Z,12.73
2019-03-31T05:59:37.607Z,12.10
2019-03-31T06:02:07.622Z,11.48
2019-03-31T06:04:37.843Z,11.08
2019-03-31T06:07:07.964Z,11.65
2019-03-31T06:09:37.774Z,9.53
2019-03-31T06:12:07.791Z,13.20
2019-03-31T06:14:39.752Z,9.53
2019-03-31T06:17:09.973Z,10.40
2019-03-31T06:19:39.887Z,11.48
2019-03-31T06:22:10.212Z,11.48
2019-03-31T06:24:40.432Z,8.78
2019-03-31T06:27:15.713Z,10.13
2019-03-31T06:29:44.769Z,9.15
2019-03-31T06:32:15.293Z,9.80
2019-03-31T06:34:49.617Z,9.03
2019-03-31T06:37:21.674Z,11.05
2019-03-31T06:39:52.212Z,11.83
2019-03-31T06:42:22.629Z,10.48
2019-03-31T06:44:52.747Z,10.28
2019-03-31T06:47:22.972Z,10.90
2019-03-31T06:49:55.034Z,8.93
2019-03-31T06:52:25.152Z,13.45
2019-03-31T06:54:55.475Z,11.28
2019-03-31T06:57:25.901Z,9.70
2019-03-31T06:59:55.828Z,9.68
2019-03-31T07:02:25.853Z,9.73
2019-03-31T07:05:01.084Z,12.40
2019-03-31T07:07:29.038Z,9.80
2019-03-31T07:09:59.670Z,8.43
2019-03-31T07:12:29.481Z,11.65
2019-03-31T07:14:59.394Z,12.65
2019-03-31T07:17:29.447Z,14.10
2019-03-31T07:19:59.221Z,16.52
2019-03-31T07:22:29.444Z,13.15
2019-03-31T07:25:00.975Z,13.65
2019-03-31T07:27:32.604Z,12.68
2019-03-31T07:30:13.623Z,12.15
2019-03-31T07:32:46.404Z,11.57
2019-03-31T07:35:19.091Z,11.75
2019-03-31T07:37:48.895Z,12.95
2019-03-31T07:40:21.033Z,13.25
2019-03-31T07:42:52.731Z,13.25
2019-03-31T07:45:22.425Z,11.57
2019-03-31T07:47:52.137Z,13.88
2019-03-31T07:50:23.304Z,14.90
2019-03-31T07:52:56.058Z,13.48
2019-03-31T07:55:26.279Z,13.78
2019-03-31T07:57:56.275Z,15.13
2019-03-31T08:00:29.693Z,16.20
2019-03-31T08:03:01.346Z,18.90
2019-03-31T08:05:33.375Z,16.35
2019-03-31T08:08:02.684Z,12.13
2019-03-31T08:10:32.828Z,14.50
2019-03-31T08:13:03.262Z,14.98
2019-03-31T08:15:33.373Z,15.35
2019-03-31T08:18:06.156Z,14.15
2019-03-31T08:20:38.353Z,14.40
2019-03-31T08:23:08.412Z,14.40
2019-03-31T08:25:38.851Z,15.40
2019-03-31T08:28:09.293Z,15.50
2019-03-31T08:30:39.413Z,15.00
2019-03-31T08:33:09.426Z,14.95
2019-03-31T08:35:47.263Z,16.20
2019-03-31T08:38:12.531Z,15.40
2019-03-31T08:40:42.547Z,15.90
2019-03-31T08:43:12.592Z,17.23
2019-03-31T08:45:44.321Z,14.25
2019-03-31T08:48:14.644Z,15.38
2019-03-31T08:50:44.663Z,13.93
2019-03-31T08:53:14.418Z,14.20
2019-03-31T08:55:44.694Z,14.50
2019-03-31T08:58:16.976Z,14.80
2019-03-31T09:00:54.044Z,14.73
2019-03-31T09:03:24.061Z,13.95
2019-03-31T09:06:01.833Z,13.60
2019-03-31T09:08:29.110Z,14.15
2019-03-31T09:11:01.245Z,14.78
2019-03-31T09:13:30.167Z,13.88
2019-03-31T09:16:00.082Z,15.35
2019-03-31T09:18:31.982Z,15.50
2019-03-31T09:21:03.493Z,16.25
2019-03-31T09:23:33.817Z,16.70
2019-03-31T09:26:05.369Z,15.72
2019-03-31T09:28:35.385Z,15.03
2019-03-31T09:31:05.504Z,15.75
2019-03-31T09:33:39.628Z,19.10
2019-03-31T09:36:15.992Z,15.68
2019-03-31T09:38:44.564Z,15.48
2019-03-31T09:41:14.888Z,14.10
2019-03-31T09:43:45.008Z,16.67
2019-03-31T09:46:15.739Z,16.02
2019-03-31T09:48:45.494Z,15.20
2019-03-31T09:51:16.288Z,13.93
2019-03-31T09:53:47.734Z,14.80
2019-03-31T09:56:17.751Z,14.85
2019-03-31T09:58:48.386Z,15.18
2019-03-31T10:01:18.677Z,15.03
2019-03-31T10:03:49.847Z,16.90
2019-03-31T10:06:30.188Z,16.52
2019-03-31T10:08:55.307Z,15.35
2019-03-31T10:11:25.528Z,17.05
2019-03-31T10:13:56.877Z,15.40
2019-03-31T10:16:26.893Z,18.55
2019-03-31T10:19:00.799Z,17.45
2019-03-31T10:21:32.354Z,17.25
2019-03-31T10:24:02.682Z,16.57
2019-03-31T10:26:33.104Z,19.55
2019-03-31T10:29:03.075Z,17.98
2019-03-31T10:31:33.031Z,19.05
2019-03-31T10:34:07.041Z,17.40
2019-03-31T10:36:44.245Z,18.73
2019-03-31T10:39:10.557Z,20.82
2019-03-31T10:41:40.571Z,20.62
2019-03-31T10:44:10.691Z,20.48
2019-03-31T10:46:40.912Z,22.13
2019-03-31T10:49:11.338Z,20.90
2019-03-31T10:51:41.561Z,22.27
2019-03-31T10:54:11.581Z,20.95
2019-03-31T10:56:42.106Z,19.75
2019-03-31T10:59:12.120Z,19.92
2019-03-31T11:01:42.238Z,18.65
2019-03-31T11:04:12.255Z,17.20
2019-03-31T11:06:42.373Z,22.17
2019-03-31T11:09:12.492Z,21.97
2019-03-31T11:11:43.123Z,21.57
2019-03-31T11:14:13.140Z,20.27
2019-03-31T11:16:43.770Z,18.92
2019-03-31T11:19:13.801Z,18.40
2019-03-31T11:21:45.440Z,19.67
2019-03-31T11:24:17.710Z,17.40
2019-03-31T11:26:47.728Z,19.80
2019-03-31T11:29:23.477Z,19.42
2019-03-31T11:32:04.753Z,18.75
2019-03-31T11:34:35.798Z,19.48
2019-03-31T11:37:13.456Z,17.98
2019-03-31T11:39:37.879Z,18.92
2019-03-31T11:42:08.203Z,20.77
2019-03-31T11:44:41.330Z,17.17
2019-03-31T11:47:12.942Z,18.37
2019-03-31T11:49:43.371Z,17.00
2019-03-31T11:52:13.694Z,18.62
2019-03-31T11:54:45.912Z,15.32
2019-03-31T11:57:17.504Z,16.65
2019-03-31T11:59:49.802Z,16.40
2019-03-31T12:02:26.905Z,18.90
2019-03-31T12:04:54.733Z,17.10
2019-03-31T12:07:28.177Z,14.83
2019-03-31T12:09:56.301Z,13.28
2019-03-31T12:12:26.215Z,13.83
2019-03-31T12:15:00.711Z,16.35
2019-03-31T12:17:34.236Z,19.10
2019-03-31T12:20:06.614Z,19.15
2019-03-31T12:22:37.339Z,18.20
2019-03-31T12:25:09.301Z,18.77
2019-03-31T12:27:39.933Z,22.60
2019-03-31T12:30:12.099Z,19.07
2019-03-31T12:32:45.802Z,18.15
2019-03-31T12:35:17.559Z,19.07
2019-03-31T12:37:47.985Z,19.10
2019-03-31T12:40:29.881Z,19.40
2019-03-31T12:43:00.308Z,18.90
2019-03-31T12:45:32.062Z,35.65
2019-03-31T12:48:02.390Z,20.70
2019-03-31T12:50:37.727Z,21.05
2019-03-31T12:53:07.949Z,19.90
2019-03-31T12:55:38.169Z,19.77
2019-03-31T12:58:08.390Z,19.07
2019-03-31T13:00:39.942Z,17.65
2019-03-31T13:03:11.495Z,17.90
2019-03-31T13:05:45.095Z,16.95
2019-03-31T13:08:17.095Z,17.67
2019-03-31T13:10:48.302Z,16.25
2019-03-31T13:13:18.525Z,16.87
2019-03-31T13:15:48.642Z,17.00
2019-03-31T13:18:27.909Z,16.52
2019-03-31T13:20:58.812Z,17.82
2019-03-31T13:23:30.365Z,17.52
2019-03-31T13:26:00.997Z,18.70
2019-03-31T13:28:33.162Z,19.52
2019-03-31T13:31:03.281Z,19.65
2019-03-31T13:33:33.502Z,19.27
2019-03-31T13:36:03.928Z,18.55
2019-03-31T13:38:34.152Z,19.30
2019-03-31T13:41:04.318Z,20.08
2019-03-31T13:43:38.687Z,18.70
2019-03-31T13:46:08.499Z,18.30
2019-03-31T13:48:38.618Z,18.57
2019-03-31T13:51:08.839Z,19.92
2019-03-31T13:53:42.132Z,17.30
2019-03-31T13:56:12.473Z,16.32
2019-03-31T13:58:43.701Z,15.80
2019-03-31T14:01:15.541Z,18.23
2019-03-31T14:03:49.882Z,18.32
2019-03-31T14:06:21.839Z,17.65
2019-03-31T14:08:51.958Z,16.90
2019-03-31T14:11:25.048Z,16.40
2019-03-31T14:13:56.132Z,14.68
2019-03-31T14:16:29.112Z,15.40
2019-03-31T14:19:01.240Z,16.82
2019-03-31T14:21:32.587Z,19.00
2019-03-31T14:24:04.449Z,15.58
2019-03-31T14:26:34.570Z,17.52
2019-03-31T14:29:04.788Z,18.20
2019-03-31T14:31:34.803Z,17.00
2019-03-31T14:34:06.361Z,16.45
2019-03-31T14:36:36.474Z,17.62
2019-03-31T14:39:08.948Z,15.55
2019-03-31T14:41:40.707Z,17.87
2019-03-31T14:44:14.100Z,16.48
2019-03-31T14:46:47.291Z,17.95
2019-03-31T14:49:21.302Z,16.93
2019-03-31T14:51:51.626Z,19.73
2019-03-31T14:54:23.179Z,20.57
2019-03-31T14:56:54.922Z,19.85
2019-03-31T14:59:25.462Z,20.35
2019-03-31T15:01:55.684Z,20.95
2019-03-31T15:04:28.567Z,20.85
2019-03-31T15:06:59.914Z,23.47
2019-03-31T15:09:32.183Z,25.72
2019-03-31T15:12:02.814Z,26.77
2019-03-31T15:14:32.799Z,27.73
2019-03-31T15:17:03.256Z,32.53
2019-03-31T15:19:33.272Z,34.33
2019-03-31T15:22:03.492Z,37.42
2019-03-31T15:24:35.968Z,41.83
2019-03-31T15:27:06.087Z,43.23
2019-03-31T15:29:36.922Z,39.08
2019-03-31T15:32:08.229Z,41.25
2019-03-31T15:34:38.798Z,44.03
2019-03-31T15:37:09.121Z,45.43
2019-03-31T15:39:39.243Z,44.65
2019-03-31T15:42:10.997Z,44.00
2019-03-31T15:44:41.020Z,42.50
2019-03-31T15:47:11.132Z,41.35
2019-03-31T15:49:41.149Z,41.83
2019-03-31T15:52:16.797Z,41.77
2019-03-31T15:54:49.782Z,37.95
2019-03-31T15:57:20.106Z,42.08
2019-03-31T15:59:55.551Z,37.73
2019-03-31T16:02:27.716Z,39.73
2019-03-31T16:04:58.043Z,41.80
2019-03-31T16:07:31.743Z,42.78
2019-03-31T16:10:01.865Z,43.10
2019-03-31T16:12:33.618Z,44.42
2019-03-31T16:15:07.424Z,42.98
2019-03-31T16:17:37.337Z,41.83
2019-03-31T16:20:07.559Z,44.53
2019-03-31T16:22:37.886Z,41.77
2019-03-31T16:25:22.751Z,40.98
2019-03-31T16:27:57.575Z,38.83
2019-03-31T16:30:28.206Z,41.00
2019-03-31T16:33:01.090Z,44.03
2019-03-31T16:35:31.004Z,45.35
2019-03-31T16:38:02.762Z,43.02
2019-03-31T16:40:32.880Z,39.38
2019-03-31T16:43:02.998Z,39.10
2019-03-31T16:45:34.551Z,41.45
2019-03-31T16:48:04.979Z,42.40
2019-03-31T16:50:40.728Z,37.40
2019-03-31T16:53:12.028Z,38.80
2019-03-31T16:55:45.368Z,42.58
2019-03-31T16:58:16.715Z,39.35
2019-03-31T17:00:47.141Z,38.55
2019-03-31T17:03:20.540Z,37.13
2019-03-31T17:05:52.295Z,35.43
2019-03-31T17:08:22.413Z,38.33
2019-03-31T17:10:57.448Z,35.05
2019-03-31T17:13:32.279Z,38.85
2019-03-31T17:16:05.671Z,39.03
2019-03-31T17:18:39.748Z,32.45
2019-03-31T17:21:10.005Z,39.50
2019-03-31T17:23:43.093Z,40.25
2019-03-31T17:26:20.482Z,36.55
2019-03-31T17:28:51.104Z,33.63
2019-03-31T17:31:24.014Z,34.33
2019-03-31T17:33:55.242Z,41.90
2019-03-31T17:36:25.258Z,32.85
2019-03-31T17:38:55.479Z,34.63
2019-03-31T17:41:26.065Z,33.53
2019-03-31T17:43:57.152Z,36.03
2019-03-31T17:46:27.166Z,28.75
2019-03-31T17:48:57.285Z,29.70
2019-03-31T17:51:34.675Z,31.30
2019-03-31T17:54:08.788Z,34.88
2019-03-31T17:56:40.339Z,29.60
2019-03-31T17:59:13.427Z,30.52
2019-03-31T18:01:47.950Z,27.15
2019-03-31T18:04:20.628Z,27.50
2019-03-31T18:06:51.875Z,24.82
2019-03-31T18:09:23.118Z,24.80
2019-03-31T18:11:53.135Z,22.37
2019-03-31T18:14:23.151Z,28.05
2019-03-31T18:16:54.800Z,24.07
2019-03-31T18:19:24.924Z,21.30
2019-03-31T18:21:58.115Z,24.05
2019-03-31T18:24:31.101Z,22.20
2019-03-31T18:27:02.757Z,23.67
2019-03-31T18:29:37.424Z,24.45
2019-03-31T18:32:07.703Z,21.48
2019-03-31T18:34:40.177Z,18.95
2019-03-31T18:37:11.627Z,26.95
2019-03-31T18:39:43.283Z,18.90
2019-03-31T18:42:13.606Z,16.48
2019-03-31T18:44:43.629Z,21.70
2019-03-31T18:47:14.049Z,18.85
2019-03-31T18:49:44.084Z,21.65
2019-03-31T18:52:15.104Z,16.32
2019-03-31T18:54:53.212Z,18.20
2019-03-31T18:57:33.978Z,17.45
2019-03-31T19:00:11.374Z,18.00
2019-03-31T19:02:52.443Z,17.95
2019-03-31T19:05:36.181Z,23.52
2019-03-31T19:08:07.836Z,18.65
2019-03-31T19:10:49.270Z,17.98
2019-03-31T19:13:19.754Z,20.15
2019-03-31T19:15:53.454Z,20.23
2019-03-31T19:18:33.395Z,16.90
2019-03-31T19:21:11.147Z,20.95
2019-03-31T19:23:39.985Z,20.77
2019-03-31T19:26:30.891Z,18.25
2019-03-31T19:29:02.648Z,17.92
2019-03-31T19:31:34.303Z,18.98
2019-03-31T19:34:10.156Z,17.77
2019-03-31T19:36:56.454Z,20.55
2019-03-31T19:39:32.614Z,15.93
2019-03-31T19:42:20.755Z,14.25
2019-03-31T19:45:02.651Z,17.40
2019-03-31T19:47:47.232Z,14.40
2019-03-31T19:50:19.868Z,17.07
2019-03-31T19:52:51.631Z,16.87
2019-03-31T19:55:42.037Z,19.27
2019-03-31T19:58:20.146Z,15.85
2019-03-31T20:01:08.899Z,14.25
2019-03-31T20:03:43.627Z,16.37
2019-03-31T20:06:32.353Z,13.70
2019-03-31T20:09:09.488Z,17.82
2019-03-31T20:11:51.050Z,13.05
2019-03-31T20:14:27.927Z,16.60
2019-03-31T20:17:03.270Z,14.70
2019-03-31T20:19:56.504Z,15.55
2019-03-31T20:22:30.847Z,12.45
2019-03-31T20:25:11.821Z,13.35
2019-03-31T20:27:59.858Z,15.55
2019-03-31T20:30:48.513Z,14.85
2019-03-31T20:33:28.854Z,14.83
2019-03-31T20:36:06.228Z,12.20
2019-03-31T20:38:37.583Z,12.50
2019-03-31T20:41:26.772Z,12.18
2019-03-31T20:43:57.102Z,13.20
2019-03-31T20:46:27.112Z,12.82
2019-03-31T20:48:59.791Z,13.85
2019-03-31T20:51:31.343Z,13.13
2019-03-31T20:54:03.616Z,13.95
2019-03-31T20:56:35.369Z,13.00
2019-03-31T20:59:08.970Z,10.38
2019-03-31T21:01:41.752Z,11.88
2019-03-31T21:04:12.388Z,10.32
2019-03-31T21:06:43.115Z,19.73
2019-03-31T21:09:13.541Z,11.78
2019-03-31T21:11:43.853Z,9.53
2019-03-31T21:14:24.121Z,8.13
2019-03-31T21:16:54.701Z,9.38
2019-03-31T21:19:23.335Z,12.33
2019-03-31T21:21:53.452Z,12.68
2019-03-31T21:24:24.083Z,8.90
2019-03-31T21:26:59.118Z,15.03
2019-03-31T21:29:30.260Z,9.15
2019-03-31T21:32:02.324Z,9.90
2019-03-31T21:34:33.161Z,10.72
2019-03-31T21:37:04.507Z,9.80
2019-03-31T21:39:34.523Z,13.38
2019-03-31T21:42:04.745Z,9.70
2019-03-31T21:44:36.391Z,11.25
2019-03-31T21:47:06.518Z,12.45
2019-03-31T21:49:37.869Z,11.40
2019-03-31T21:52:09.855Z,11.97
2019-03-31T21:54:40.253Z,12.25
2019-03-31T21:57:10.271Z,13.60
2019-03-31T21:59:40.493Z,12.18
2019-03-31T22:02:12.149Z,13.35
2019-03-31T22:04:42.162Z,10.70
2019-03-31T22:07:12.793Z,15.15
2019-03-31T22:09:43.117Z,10.70
2019-03-31T22:12:15.385Z,13.78
2019-03-31T22:14:48.896Z,13.05
2019-03-31T22:17:18.797Z,12.18
2019-03-31T22:19:48.814Z,12.20
2019-03-31T22:22:19.037Z,12.95
2019-03-31T22:24:49.256Z,11.08
2019-03-31T22:27:19.476Z,14.90
2019-03-31T22:29:49.496Z,13.32
2019-03-31T22:32:22.173Z,14.93
2019-03-31T22:34:52.701Z,17.05
2019-03-31T22:37:24.348Z,14.95
2019-03-31T22:39:54.371Z,18.95
2019-03-31T22:42:24.694Z,14.93
2019-03-31T22:44:55.223Z,17.57
2019-03-31T22:47:26.878Z,16.87
2019-03-31T22:49:56.792Z,17.95
2019-03-31T22:52:28.655Z,17.90
2019-03-31T22:55:00.348Z,16.15
2019-03-31T22:57:34.009Z,15.15
2019-03-31T23:00:06.483Z,17.85
2019-03-31T23:02:37.015Z,16.62
2019-03-31T23:05:07.233Z,17.40
2019-03-31T23:07:38.067Z,17.35
2019-03-31T23:10:09.620Z,14.28
2019-03-31T23:12:43.220Z,14.95
2019-03-31T23:15:14.159Z,23.20
2019-03-31T23:17:44.584Z,15.43
2019-03-31T23:20:15.214Z,25.35
2019-03-31T23:22:45.131Z,17.75
2019-03-31T23:25:16.374Z,17.00
2019-03-31T23:27:46.495Z,16.35
2019-03-31T23:30:16.816Z,17.05
2019-03-31T23:32:46.833Z,18.55
2019-03-31T23:35:18.487Z,19.32
2019-03-31T23:37:48.403Z,20.20
2019-03-31T23:40:18.419Z,16.77
2019-03-31T23:42:49.357Z,16.50
2019-03-31T23:45:19.681Z,18.45
2019-03-31T23:47:49.833Z,17.07
2019-03-31T23:50:21.247Z,19.70
2019-03-31T23:52:51.469Z,18.17
2019-03-31T23:55:21.588Z,17.95
2019-03-31T23:57:51.928Z,19.42
